Airfield :
LOGIN :

Register | Disclaimer

   EN    FR    IT 

 










Legend :    VFR   Marginal VFR   IFR   Intensive IFR   Very Intensive IFR
Visi :
Ceiling :
>= 8 km
>= 3000ft
5 to 8 km
1000 to 3000 ft
1500m to 5 km
500 to 1000 ft
800 to 1500m
200 to 500 ft
< 800m
< 200 ft
Symbols :   Thunderstorms  Fog  Heavy snow  Heavy precipitations  Wind > 20 kt
SIGMETs :     Misc.  Thunderstorms  Icing  Turbulence  Mountain Waves  Volcanic Ashes






- Airport Elevation : 935 ft


EBFS - Florennes

CURRENT METAR :
  • 290855Z AUTO 03020KT 9999 FEW034/// 05/M03 Q1026 BLU

EXPIRED METARs :
  • 290825Z AUTO 03020KT 9999 FEW021/// SCT027/// 04/M02 Q1026 BLU
  • 290755Z AUTO 02018KT 9999 FEW016/// BKN021/// 03/M01 Q1026 WHT
  • 290725Z AUTO 02016KT 9999 FEW014/// SCT018/// BKN021/// 03/M01 Q1026 WHT
  • 290713Z AUTO 02016KT 9999 FEW013/// SCT017/// BKN020/// 03/M00 Q1026 WHT
  • 290655Z AUTO 03016KT 9999 SCT013/// BKN017/// BKN021/// 03/M00 Q1026 GRN
  • 290625Z AUTO 01014G26KT 9999 BKN013/// OVC017/// 02/M00 Q1026 GRN

Expired Forecast.



MET'MAP, your aeronautical weather chart ! - Copyright ORBIFLY December 2007 - Disclaimer

ORBIFLY MET'MAP TEAM :

Programming & Development : Alexandra Zaïnal
Concept & original design : Baudouin d'Aumeries
Assistance for programming : Marc-Olivier Méhu
Technical & hardware support : Manuel Goepfert

Contact : metmap@orbifly.com




SOURCES & CREDITS :

   NOAA